Time;durP1;ratioP1;P1;durP2;ratioP2;P2;SDS_P1;SDS_P2;PMS_P1;PMS_P2;Temp;Humidity;BMP_temperature;BMP_pressure;BME280_temperature;BME280_humidity;BME280_pressure;Samples;Min_cycle;Max_cycle;Signal;HPM_P1;HPM_P2
2023/09/14 00:01:54;;;;;;;12.80;5.03;;;;;;;19.48;67.55;94810.50;5108795;28;20204;-44
2023/09/14 00:04:21;;;;;;;6.90;4.57;;;;;;;19.47;67.76;94805.50;5109446;28;20254;-44
2023/09/14 00:06:50;;;;;;;8.53;4.77;;;;;;;19.46;67.90;94809.88;5109106;28;20185;-45
2023/09/14 00:09:17;;;;;;;5.50;4.33;;;;;;;19.43;67.86;94807.69;5110070;28;20692;-44
2023/09/14 00:11:43;;;;;;;9.13;4.80;;;;;;;19.42;68.22;94815.63;5112816;28;20702;-45
2023/09/14 00:14:10;;;;;;;6.93;4.43;;;;;;;19.41;68.34;94817.44;5113184;28;20666;-43
2023/09/14 00:16:37;;;;;;;5.57;4.57;;;;;;;19.38;68.22;94815.22;5112826;28;20188;-44
2023/09/14 00:19:04;;;;;;;6.67;4.33;;;;;;;19.37;68.29;94818.00;5113348;28;20310;-45
2023/09/14 00:21:31;;;;;;;6.40;3.93;;;;;;;19.35;68.15;94810.41;5113229;28;20246;-45
2023/09/14 00:23:59;;;;;;;8.70;4.30;;;;;;;19.34;67.67;94816.56;5113494;28;20219;-45
2023/09/14 00:26:26;;;;;;;5.50;3.60;;;;;;;19.36;66.65;94824.97;5113198;28;20583;-43
2023/09/14 00:28:53;;;;;;;7.43;3.87;;;;;;;19.30;66.69;94823.16;5112581;28;20221;-45
2023/09/14 00:31:19;;;;;;;7.40;4.67;;;;;;;19.24;66.84;94826.47;5112918;28;20554;-44
2023/09/14 00:33:46;;;;;;;6.90;3.57;;;;;;;18.99;66.88;94794.97;5114852;28;20193;-46
2023/09/14 00:36:13;;;;;;;9.03;4.30;;;;;;;19.16;66.95;94824.03;5116108;28;20185;-46
2023/09/14 00:38:40;;;;;;;6.13;4.03;;;;;;;19.10;67.01;94822.19;5113333;28;20595;-44
2023/09/14 00:41:08;;;;;;;7.30;4.03;;;;;;;19.08;67.04;94821.56;5113541;28;20188;-42
2023/09/14 00:43:35;;;;;;;8.97;3.80;;;;;;;19.04;67.13;94827.13;5115414;28;20517;-43
2023/09/14 00:46:02;;;;;;;7.03;4.17;;;;;;;19.02;67.32;94818.72;5116234;28;20566;-45
2023/09/14 00:48:32;;;;;;;8.53;4.00;;;;;;;18.97;67.33;94821.09;5113161;28;20200;-44
2023/09/14 00:50:59;;;;;;;6.37;4.20;;;;;;;18.90;67.59;94809.84;5113076;28;20236;-44
2023/09/14 00:53:26;;;;;;;6.50;3.57;;;;;;;18.95;67.37;94815.28;5112165;28;20196;-44
2023/09/14 00:55:53;;;;;;;7.77;4.10;;;;;;;18.95;67.50;94817.06;5112416;28;20200;-44
2023/09/14 00:58:21;;;;;;;6.50;4.00;;;;;;;18.92;67.63;94814.88;5112712;28;20188;-43
2023/09/14 01:00:49;;;;;;;4.60;3.47;;;;;;;18.91;67.72;94813.25;5112353;28;20189;-45
2023/09/14 01:03:17;;;;;;;8.30;4.40;;;;;;;18.86;67.91;94813.78;5112280;27;20602;-45
2023/09/14 01:05:45;;;;;;;4.80;3.70;;;;;;;18.83;68.29;94813.38;5112016;27;20197;-43
2023/09/14 01:08:12;;;;;;;8.03;3.87;;;;;;;18.79;68.96;94813.75;5112983;28;20257;-44
2023/09/14 01:10:39;;;;;;;7.50;4.27;;;;;;;18.78;68.84;94808.72;5111839;28;20235;-44
2023/09/14 01:13:08;;;;;;;7.40;3.93;;;;;;;18.75;68.97;94807.34;5112297;28;20587;-42
2023/09/14 01:15:40;;;;;;;10.93;3.93;;;;;;;18.73;69.64;94798.94;5111814;28;20189;-44
2023/09/14 01:18:17;;;;;;;6.53;3.70;;;;;;;18.72;69.70;94801.72;5112181;28;20377;-43
2023/09/14 01:21:01;;;;;;;4.30;3.90;;;;;;;18.70;69.70;94803.69;5111240;27;20641;-44
2023/09/14 01:23:37;;;;;;;7.93;3.70;;;;;;;18.68;69.99;94803.84;5111784;28;20568;-45
2023/09/14 01:26:07;;;;;;;9.37;3.67;;;;;;;18.69;70.04;94807.22;5112046;28;20217;-42
2023/09/14 01:28:34;;;;;;;6.70;4.07;;;;;;;18.58;70.15;94792.19;5111903;27;20193;-42
2023/09/14 01:31:01;;;;;;;7.50;3.90;;;;;;;18.68;70.04;94813.41;5112109;28;20227;-44
2023/09/14 01:33:29;;;;;;;5.53;3.97;;;;;;;18.70;70.34;94814.06;5111764;28;20185;-43
2023/09/14 01:36:03;;;;;;;5.57;4.77;;;;;;;18.70;70.18;94814.88;5111425;28;20280;-43
2023/09/14 01:38:32;;;;;;;4.20;3.73;;;;;;;18.68;70.45;94816.00;5111086;28;20733;-43
2023/09/14 01:41:00;;;;;;;4.17;3.80;;;;;;;18.65;70.35;94818.94;5111786;28;20661;-44
2023/09/14 01:43:29;;;;;;;5.43;4.10;;;;;;;18.63;70.34;94810.56;5111511;28;20193;-43
2023/09/14 01:45:56;;;;;;;5.30;3.93;;;;;;;18.62;70.26;94809.75;5111494;28;20189;-43
2023/09/14 01:48:23;;;;;;;5.17;3.57;;;;;;;18.61;70.34;94815.94;5111328;28;20189;-43
2023/09/14 01:50:50;;;;;;;5.03;4.03;;;;;;;18.58;70.46;94821.47;5111098;28;20234;-45
2023/09/14 01:53:17;;;;;;;8.17;4.50;;;;;;;18.57;70.83;94814.69;5111795;28;20192;-45
2023/09/14 01:55:44;;;;;;;9.20;4.97;;;;;;;18.54;70.74;94823.63;5111647;28;20181;-42
2023/09/14 01:58:12;;;;;;;5.30;3.43;;;;;;;18.52;70.99;94823.03;5111182;28;20571;-41
2023/09/14 02:00:40;;;;;;;6.53;3.97;;;;;;;18.54;70.71;94821.03;5111156;28;20280;-44
2023/09/14 02:03:07;;;;;;;4.97;3.80;;;;;;;18.51;71.06;94823.97;5111287;28;20197;-43
2023/09/14 02:05:34;;;;;;;5.30;3.80;;;;;;;18.51;71.04;94823.19;5111298;28;20180;-46
2023/09/14 02:08:00;;;;;;;7.57;4.27;;;;;;;18.49;70.82;94823.38;5113164;28;20189;-44
2023/09/14 02:10:27;;;;;;;8.17;3.87;;;;;;;18.49;71.00;94825.16;5114528;28;20205;-45
2023/09/14 02:12:54;;;;;;;6.13;4.00;;;;;;;18.46;71.29;94818.56;5112525;28;20181;-44
2023/09/14 02:15:21;;;;;;;7.70;4.70;;;;;;;18.44;71.71;94815.38;5110848;28;20193;-44
2023/09/14 02:17:49;;;;;;;6.10;4.10;;;;;;;18.41;72.03;94823.50;5110676;28;20191;-43
2023/09/14 02:20:16;;;;;;;5.00;3.97;;;;;;;18.39;72.21;94825.44;5110848;28;20205;-45
2023/09/14 02:22:43;;;;;;;5.40;3.73;;;;;;;18.38;72.33;94825.63;5110544;28;20199;-46
2023/09/14 02:25:09;;;;;;;4.47;3.20;;;;;;;18.35;72.33;94823.41;5110711;28;20221;-44
2023/09/14 02:27:36;;;;;;;6.33;3.87;;;;;;;18.36;72.08;94825.03;5110502;28;20221;-43
2023/09/14 02:30:04;;;;;;;9.03;4.90;;;;;;;18.33;72.28;94823.59;5110988;28;20196;-43
2023/09/14 02:32:30;;;;;;;7.60;4.57;;;;;;;18.33;72.28;94826.19;5109717;28;20765;-44
2023/09/14 02:34:58;;;;;;;5.83;4.27;;;;;;;18.32;72.64;94827.19;5110168;28;20237;-44
2023/09/14 02:37:25;;;;;;;4.03;3.30;;;;;;;18.28;72.86;94823.34;5110695;28;20394;-44
2023/09/14 02:39:52;;;;;;;6.83;4.07;;;;;;;18.20;73.26;94807.91;5110376;28;20603;-45
2023/09/14 02:42:19;;;;;;;5.63;3.17;;;;;;;18.25;73.23;94818.53;5110262;28;20666;-45
2023/09/14 02:44:46;;;;;;;4.10;3.40;;;;;;;18.24;73.42;94817.72;5110238;28;20208;-44
2023/09/14 02:47:13;;;;;;;5.27;4.07;;;;;;;18.21;73.58;94804.34;5110022;28;20205;-45
2023/09/14 02:49:40;;;;;;;7.40;4.03;;;;;;;18.22;73.66;94811.09;5110352;28;20199;-43
2023/09/14 02:52:08;;;;;;;9.20;4.47;;;;;;;18.23;73.75;94805.75;5109877;28;20316;-43
2023/09/14 02:54:35;;;;;;;6.83;3.70;;;;;;;18.23;73.68;94797.19;5110327;28;20181;-46
2023/09/14 02:57:02;;;;;;;10.77;4.20;;;;;;;18.22;73.80;94793.81;5110586;28;20272;-43
2023/09/14 02:59:29;;;;;;;8.13;4.10;;;;;;;18.24;73.98;94802.19;5109890;28;20629;-46
2023/09/14 03:01:56;;;;;;;8.77;3.97;;;;;;;18.25;74.05;94790.03;5109960;28;20249;-46
2023/09/14 03:04:23;;;;;;;5.17;3.93;;;;;;;18.28;73.81;94802.63;5109684;28;20534;-44
2023/09/14 03:06:50;;;;;;;6.53;3.80;;;;;;;18.31;73.70;94802.28;5110553;28;20200;-43
2023/09/14 03:09:18;;;;;;;5.87;3.37;;;;;;;18.31;74.08;94804.88;5110117;28;20181;-52
2023/09/14 03:11:45;;;;;;;7.43;4.40;;;;;;;18.32;74.21;94805.66;5109805;28;20220;-44
2023/09/14 03:14:11;;;;;;;5.57;4.10;;;;;;;18.36;74.05;94806.91;5109772;28;20188;-43
2023/09/14 03:16:38;;;;;;;11.63;5.17;;;;;;;18.10;73.89;94766.00;5109818;28;20203;-45
2023/09/14 03:19:05;;;;;;;6.37;4.27;;;;;;;18.34;74.07;94807.06;5110069;28;20207;-43
2023/09/14 03:21:32;;;;;;;6.13;4.13;;;;;;;18.36;74.15;94812.09;5109963;27;20189;-43
2023/09/14 03:23:59;;;;;;;11.07;4.70;;;;;;;18.36;74.14;94818.06;5109392;28;20197;-45
2023/09/14 03:26:27;;;;;;;7.53;4.00;;;;;;;18.38;73.78;94810.09;5109818;28;20251;-45
2023/09/14 03:28:54;;;;;;;7.57;3.90;;;;;;;18.37;74.06;94816.28;5109914;28;20228;-43
2023/09/14 03:31:21;;;;;;;8.33;4.23;;;;;;;18.38;74.05;94816.06;5109490;28;20216;-42
2023/09/14 03:33:54;;;;;;;10.13;4.77;;;;;;;18.30;73.92;94809.22;5109648;28;20189;-43
2023/09/14 03:36:21;;;;;;;6.00;4.00;;;;;;;18.35;74.16;94819.06;5109789;28;20196;-42
2023/09/14 03:38:48;;;;;;;7.73;3.83;;;;;;;18.33;74.46;94813.25;5109756;28;20199;-44
2023/09/14 03:41:15;;;;;;;5.33;4.17;;;;;;;18.33;74.31;94813.25;5109499;28;20189;-43
2023/09/14 03:43:43;;;;;;;5.27;4.50;;;;;;;18.30;74.61;94821.34;5109576;28;20181;-43
2023/09/14 03:46:14;;;;;;;5.40;4.23;;;;;;;18.27;74.31;94816.56;5113570;28;20189;-42
2023/09/14 03:48:41;;;;;;;5.73;4.50;;;;;;;18.29;74.70;94812.78;5114127;28;20192;-45
2023/09/14 03:51:08;;;;;;;9.90;4.20;;;;;;;18.28;74.92;94813.00;5114182;28;20220;-43
2023/09/14 03:53:42;;;;;;;6.57;4.53;;;;;;;18.25;75.03;94808.97;5115068;28;20599;-46
2023/09/14 03:56:09;;;;;;;8.03;4.30;;;;;;;18.19;75.06;94808.91;5113426;27;20216;-44
2023/09/14 03:58:36;;;;;;;9.80;4.70;;;;;;;18.22;75.02;94814.53;5113747;28;20188;-45
2023/09/14 04:01:04;;;;;;;8.10;4.23;;;;;;;18.24;75.06;94824.69;5113256;28;20192;-44
2023/09/14 04:03:31;;;;;;;7.70;4.40;;;;;;;18.22;75.29;94824.88;5113816;28;20196;-43
2023/09/14 04:05:57;;;;;;;6.17;4.77;;;;;;;18.22;75.48;94824.06;5113285;28;20197;-45
2023/09/14 04:08:26;;;;;;;7.37;4.13;;;;;;;18.20;75.72;94824.25;5113435;28;20185;-45
2023/09/14 04:10:52;;;;;;;10.33;5.30;;;;;;;18.20;75.96;94834.59;5113328;28;20188;-45
2023/09/14 04:13:27;;;;;;;7.87;4.73;;;;;;;18.20;76.22;94829.41;5113710;28;20189;-44
2023/09/14 04:15:55;;;;;;;8.27;5.10;;;;;;;18.16;76.26;94819.59;5113476;27;20205;-44
2023/09/14 04:18:23;;;;;;;9.77;5.00;;;;;;;18.20;76.43;94833.78;5113403;28;20189;-44
2023/09/14 04:20:50;;;;;;;9.67;4.63;;;;;;;18.18;76.57;94831.41;5112871;28;20638;-44
2023/09/14 04:23:17;;;;;;;8.87;4.83;;;;;;;18.19;76.63;94833.00;5113447;28;20258;-43
2023/09/14 04:25:45;;;;;;;18.93;5.63;;;;;;;18.09;76.67;94821.31;5113033;28;20221;-44
2023/09/14 04:28:13;;;;;;;13.27;5.80;;;;;;;18.23;76.68;94833.44;5113321;27;20250;-44
2023/09/14 04:30:47;;;;;;;7.60;4.93;;;;;;;18.26;76.60;94838.25;5113710;28;20197;-43
2023/09/14 04:33:14;;;;;;;13.50;5.27;;;;;;;18.32;76.44;94842.72;5112985;28;20195;-43
2023/09/14 04:35:43;;;;;;;11.93;5.27;;;;;;;18.34;76.28;94843.31;5113128;28;20611;-43
2023/09/14 04:38:10;;;;;;;10.60;5.50;;;;;;;18.36;76.26;94841.38;5112563;28;20207;-43
2023/09/14 04:40:38;;;;;;;16.43;5.63;;;;;;;18.40;76.07;94846.97;5112808;28;20615;-43
2023/09/14 04:43:06;;;;;;;14.03;5.50;;;;;;;18.39;76.36;94838.38;5112500;28;20258;-44
2023/09/14 04:45:32;;;;;;;19.33;6.00;;;;;;;18.45;76.08;94842.06;5113153;28;20199;-44
2023/09/14 04:48:00;;;;;;;16.13;5.87;;;;;;;18.44;76.24;94838.66;5112663;28;20238;-44
2023/09/14 04:50:27;;;;;;;15.30;5.37;;;;;;;18.55;75.90;94845.16;5113201;28;20568;-44
2023/09/14 04:52:56;;;;;;;18.13;6.07;;;;;;;18.47;75.84;94817.56;5112633;28;20220;-41
2023/09/14 04:55:24;;;;;;;8.93;5.27;;;;;;;18.71;75.43;94837.19;5112486;28;20906;-43
2023/09/14 04:57:51;;;;;;;11.23;5.40;;;;;;;18.84;74.96;94844.28;5112185;28;20215;-44
2023/09/14 05:00:18;;;;;;;9.87;5.80;;;;;;;18.96;74.80;94847.19;5112596;28;20189;-44
2023/09/14 05:02:45;;;;;;;15.47;5.57;;;;;;;19.11;74.67;94853.09;5112098;28;20193;-43
2023/09/14 05:05:12;;;;;;;10.37;5.73;;;;;;;19.30;74.18;94852.47;5112663;28;20193;-45
2023/09/14 05:07:39;;;;;;;22.40;6.03;;;;;;;19.47;72.64;94852.19;5112397;28;20642;-43
2023/09/14 05:10:09;;;;;;;18.50;5.73;;;;;;;19.69;71.58;94853.78;5112248;28;20272;-45
2023/09/14 05:12:36;;;;;;;13.20;5.93;;;;;;;19.92;70.95;94865.69;5112284;28;20221;-45
2023/09/14 05:15:05;;;;;;;13.63;5.90;;;;;;;20.20;70.03;94866.44;5112158;28;20203;-45
2023/09/14 05:17:31;;;;;;;15.30;5.50;;;;;;;20.44;68.57;94848.75;5112121;28;20666;-44
2023/09/14 05:19:58;;;;;;;15.52;5.53;;;;;;;20.79;67.64;94862.50;5111867;28;20200;-42
2023/09/14 05:22:25;;;;;;;12.02;5.68;;;;;;;21.02;66.65;94862.91;5112181;28;20196;-43
2023/09/14 05:24:52;;;;;;;17.10;6.18;;;;;;;21.17;65.82;94862.75;5111742;28;20271;-45
2023/09/14 05:27:21;;;;;;;12.30;5.47;;;;;;;21.26;64.59;94860.75;5112394;28;20185;-43
2023/09/14 05:29:48;;;;;;;11.75;5.13;;;;;;;21.24;64.03;94860.97;5111775;28;20204;-44
2023/09/14 05:32:15;;;;;;;20.95;5.43;;;;;;;21.24;63.99;94853.16;5111873;28;20273;-45
2023/09/14 05:34:42;;;;;;;16.95;6.13;;;;;;;21.38;64.00;94848.00;5111697;28;20235;-45
2023/09/14 05:37:08;;;;;;;11.30;5.63;;;;;;;21.53;63.75;94849.38;5111930;28;20181;-45
2023/09/14 05:39:36;;;;;;;11.27;4.75;;;;;;;21.72;62.51;94855.56;5112410;28;20280;-45
2023/09/14 05:42:03;;;;;;;9.88;5.45;;;;;;;21.91;62.07;94848.72;5112283;28;20192;-44
2023/09/14 05:44:31;;;;;;;11.98;5.00;;;;;;;22.10;61.36;94859.28;5112048;28;20199;-44
2023/09/14 05:46:58;;;;;;;9.85;5.15;;;;;;;22.37;60.94;94854.84;5111930;28;20216;-43
2023/09/14 05:49:24;;;;;;;10.32;5.70;;;;;;;22.52;60.24;94842.31;5112035;28;20537;-43
2023/09/14 05:51:51;;;;;;;14.20;5.68;;;;;;;22.82;58.81;94863.44;5110691;28;20231;-43
2023/09/14 05:54:18;;;;;;;9.80;4.68;;;;;;;23.06;57.46;94866.31;5109071;28;20189;-46
2023/09/14 05:56:45;;;;;;;10.77;5.38;;;;;;;23.25;57.24;94862.78;5109363;28;20573;-44
2023/09/14 05:59:12;;;;;;;13.40;5.70;;;;;;;23.34;56.76;94861.50;5108958;28;20193;-44
2023/09/14 06:01:40;;;;;;;12.00;5.60;;;;;;;23.33;56.36;94859.13;5108914;28;20200;-44
2023/09/14 06:04:07;;;;;;;22.85;6.47;;;;;;;23.29;56.05;94856.94;5108866;28;20261;-44
2023/09/14 06:06:33;;;;;;;19.67;6.72;;;;;;;23.29;55.84;94848.31;5109622;28;20266;-44
2023/09/14 06:09:00;;;;;;;12.15;6.60;;;;;;;23.47;55.71;94858.78;5109091;28;20204;-44
2023/09/14 06:11:28;;;;;;;12.10;5.90;;;;;;;23.56;54.86;94854.09;5108783;28;20184;-45
2023/09/14 06:13:54;;;;;;;14.30;6.93;;;;;;;23.59;54.81;94850.28;5109104;28;20241;-46
2023/09/14 06:16:21;;;;;;;18.58;7.40;;;;;;;23.62;54.58;94849.81;5108222;28;20234;-44
2023/09/14 06:18:50;;;;;;;22.27;6.63;;;;;;;23.60;54.46;94852.66;5108678;28;20527;-46
2023/09/14 06:21:18;;;;;;;27.50;7.15;;;;;;;23.55;54.58;94855.13;5108554;27;20217;-44
2023/09/14 06:23:44;;;;;;;15.43;6.13;;;;;;;23.52;54.35;94855.53;5108871;28;20278;-44
2023/09/14 06:26:11;;;;;;;14.80;6.22;;;;;;;23.59;54.28;94861.50;5108290;28;20290;-43
2023/09/14 06:28:38;;;;;;;24.35;5.95;;;;;;;23.59;54.03;94855.50;5108274;28;20199;-45
2023/09/14 06:31:05;;;;;;;17.85;5.75;;;;;;;23.55;54.00;94857.72;5108506;28;20692;-44
2023/09/14 06:33:32;;;;;;;13.45;6.78;;;;;;;23.42;54.14;94866.47;5108065;28;20231;-44
2023/09/14 06:36:00;;;;;;;21.55;6.53;;;;;;;23.34;54.73;94868.53;5108177;28;20203;-45
2023/09/14 06:38:27;;;;;;;10.82;5.90;;;;;;;23.43;54.74;94873.28;5108194;28;20188;-45
2023/09/14 06:40:55;;;;;;;10.73;6.30;;;;;;;23.66;54.16;94871.91;5108166;28;20265;-44
2023/09/14 06:43:22;;;;;;;14.90;8.93;;;;;;;23.45;53.64;94815.66;5107989;28;20254;-45
2023/09/14 06:45:48;;;;;;;15.88;7.75;;;;;;;23.96;52.82;94874.66;5108056;28;20692;-42
2023/09/14 06:48:15;;;;;;;14.80;8.02;;;;;;;23.22;52.59;94740.56;5107815;28;20199;-45
2023/09/14 06:50:42;;;;;;;21.15;8.80;;;;;;;24.26;52.19;94883.38;5108001;28;20200;-43
2023/09/14 06:53:11;;;;;;;12.05;6.45;;;;;;;24.38;51.96;94880.88;5107945;28;20570;-47
2023/09/14 06:55:39;;;;;;;12.10;5.93;;;;;;;24.62;51.16;94891.47;5108248;28;20181;-46
2023/09/14 06:58:06;;;;;;;18.15;7.60;;;;;;;24.87;50.53;94889.53;5108053;28;20189;-46
2023/09/14 07:00:32;;;;;;;21.73;6.53;;;;;;;24.93;50.51;94864.31;5107883;28;20189;-44
2023/09/14 07:02:59;;;;;;;15.45;6.38;;;;;;;25.34;49.96;94886.28;5107943;28;20195;-45
2023/09/14 07:05:26;;;;;;;12.90;5.90;;;;;;;25.17;48.84;94818.06;5107166;28;20185;-45
2023/09/14 07:07:53;;;;;;;9.90;5.68;;;;;;;25.85;48.03;94887.50;5100853;28;20655;-44
2023/09/14 07:10:21;;;;;;;13.07;6.07;;;;;;;26.03;47.76;94890.81;5087192;28;20204;-44
2023/09/14 07:12:48;;;;;;;8.63;5.30;;;;;;;26.21;47.19;94884.66;5087551;28;20225;-44
2023/09/14 07:15:15;;;;;;;20.60;5.85;;;;;;;26.42;45.89;94892.94;5087328;28;20196;-45
2023/09/14 07:17:42;;;;;;;17.17;5.95;;;;;;;26.54;46.02;94893.72;5088196;28;20193;-44
2023/09/14 07:20:09;;;;;;;10.70;5.35;;;;;;;26.64;45.42;94893.94;5087140;28;20216;-46
2023/09/14 07:22:37;;;;;;;17.58;6.13;;;;;;;26.70;45.21;94894.84;5105102;28;20197;-44
2023/09/14 07:25:05;;;;;;;11.70;4.95;;;;;;;26.85;45.31;94891.69;5109833;28;20220;-44
2023/09/14 07:27:33;;;;;;;7.72;4.78;;;;;;;27.13;44.44;94893.56;5110542;28;20189;-45
2023/09/14 07:30:00;;;;;;;10.98;5.88;;;;;;;27.25;44.71;94894.31;5109752;28;20197;-44
2023/09/14 07:32:27;;;;;;;14.10;6.88;;;;;;;27.30;44.07;94893.59;5109911;28;20220;-45
2023/09/14 07:34:57;;;;;;;9.55;5.60;;;;;;;27.26;44.85;94906.38;5109595;28;20189;-45
2023/09/14 07:37:24;;;;;;;12.85;6.20;;;;;;;27.25;44.25;94905.59;5109933;28;20727;-45
2023/09/14 07:39:50;;;;;;;14.68;7.13;;;;;;;27.39;44.30;94900.84;5110313;28;20253;-44
2023/09/14 07:42:17;;;;;;;13.25;6.88;;;;;;;27.57;44.18;94909.53;5109936;28;20189;-45
2023/09/14 07:44:45;;;;;;;13.18;6.97;;;;;;;27.66;43.62;94910.72;5110429;28;20181;-45
2023/09/14 07:47:12;;;;;;;11.48;6.50;;;;;;;27.62;43.94;94899.88;5109745;28;20211;-45
2023/09/14 07:49:39;;;;;;;12.25;6.22;;;;;;;27.61;43.54;94898.31;5107295;28;20268;-45
2023/09/14 07:52:06;;;;;;;16.10;6.70;;;;;;;27.60;43.57;94914.31;5107021;28;20184;-45
2023/09/14 07:54:34;;;;;;;14.82;5.18;;;;;;;27.50;43.45;94909.66;5107424;28;20211;-46
2023/09/14 07:57:01;;;;;;;21.15;5.93;;;;;;;27.39;43.18;94907.94;5107147;28;20206;-47
2023/09/14 07:59:28;;;;;;;13.27;6.38;;;;;;;27.42;43.67;94910.88;5107109;28;20193;-46
2023/09/14 08:01:56;;;;;;;19.20;6.25;;;;;;;27.53;43.54;94909.19;5106974;28;20193;-45
2023/09/14 08:04:23;;;;;;;13.20;6.07;;;;;;;27.71;43.33;94901.06;5107011;28;20197;-44
2023/09/14 08:06:50;;;;;;;18.58;6.32;;;;;;;27.93;43.18;94895.91;5107389;28;20269;-46
2023/09/14 08:09:17;;;;;;;13.52;6.07;;;;;;;28.10;42.54;94895.88;5107181;28;20618;-43
2023/09/14 08:11:43;;;;;;;14.38;6.03;;;;;;;28.09;42.58;94894.31;5106978;28;20196;-45
2023/09/14 08:14:10;;;;;;;14.75;5.57;;;;;;;28.14;42.66;94888.31;5105400;28;20220;-44
2023/09/14 08:16:37;;;;;;;14.93;6.78;;;;;;;28.41;42.07;94878.72;5109377;28;20192;-45
2023/09/14 08:19:05;;;;;;;16.02;6.38;;;;;;;28.55;42.08;94881.00;5109076;28;20296;-44
2023/09/14 08:21:32;;;;;;;20.48;6.75;;;;;;;28.62;41.78;94882.38;5109645;28;20302;-43
2023/09/14 08:23:58;;;;;;;15.15;6.05;;;;;;;28.64;41.35;94893.47;5109005;28;20201;-44
2023/09/14 08:26:25;;;;;;;25.13;6.68;;;;;;;28.48;41.76;94881.16;5109489;28;20252;-44
2023/09/14 08:28:52;;;;;;;14.15;6.72;;;;;;;28.17;41.82;94891.25;5109316;28;20200;-45
2023/09/14 08:31:19;;;;;;;16.58;6.53;;;;;;;27.90;42.65;94883.28;5111799;28;20600;-45
2023/09/14 08:33:45;;;;;;;14.15;6.47;;;;;;;28.00;42.69;94877.34;5112843;28;20221;-43
2023/09/14 08:36:14;;;;;;;17.50;6.43;;;;;;;28.08;42.73;94884.84;5113363;28;20185;-44
2023/09/14 08:38:40;;;;;;;13.65;5.88;;;;;;;28.03;43.03;94881.34;5112854;28;20181;-44
2023/09/14 08:41:17;;;;;;;12.98;6.72;;;;;;;28.16;42.75;94876.53;5113184;28;20188;-46
2023/09/14 08:43:46;;;;;;;11.20;5.63;;;;;;;28.24;42.61;94876.09;5113081;28;20268;-44
2023/09/14 08:46:15;;;;;;;12.80;6.03;;;;;;;28.29;42.08;94878.00;5112683;28;20193;-43
2023/09/14 08:48:45;;;;;;;14.75;6.15;;;;;;;28.42;42.41;94875.03;5112720;28;20188;-44
2023/09/14 08:51:14;;;;;;;15.52;6.18;;;;;;;28.69;41.99;94874.31;5113197;28;20209;-44
2023/09/14 08:53:41;;;;;;;17.08;6.30;;;;;;;28.92;41.31;94871.38;5112660;28;20307;-45
2023/09/14 08:56:10;;;;;;;14.43;6.00;;;;;;;29.22;40.84;94859.56;5112795;28;20645;-44
2023/09/14 08:58:37;;;;;;;12.65;5.57;;;;;;;29.19;40.29;94831.13;5112609;28;20227;-43
2023/09/14 09:01:06;;;;;;;13.80;5.30;;;;;;;29.48;40.04;94850.03;5112364;28;20558;-44
2023/09/14 09:03:34;;;;;;;13.25;5.93;;;;;;;29.78;40.18;94853.97;5112394;28;20229;-45
2023/09/14 09:06:01;;;;;;;17.90;5.13;;;;;;;29.89;39.63;94851.16;5112153;28;20645;-44
2023/09/14 09:08:29;;;;;;;15.63;5.28;;;;;;;29.80;39.50;94841.34;5112264;28;20185;-43
2023/09/14 09:10:56;;;;;;;13.07;4.95;;;;;;;29.75;39.51;94839.47;5112253;28;20189;-46
2023/09/14 09:13:34;;;;;;;13.57;5.43;;;;;;;29.70;39.86;94834.94;5112131;28;20224;-43
2023/09/14 09:16:01;;;;;;;17.02;5.57;;;;;;;29.68;39.58;94815.97;5112033;28;20181;-43
2023/09/14 09:18:28;;;;;;;12.15;6.10;;;;;;;29.81;39.23;94827.91;5112129;28;20211;-44
2023/09/14 09:20:56;;;;;;;14.30;5.50;;;;;;;29.87;39.25;94818.16;5112470;28;20265;-45
2023/09/14 09:23:23;;;;;;;16.23;5.55;;;;;;;29.93;39.22;94814.53;5112057;28;20246;-44
2023/09/14 09:25:53;;;;;;;13.55;5.10;;;;;;;29.96;39.36;94814.00;5111720;28;20228;-44
2023/09/14 09:28:28;;;;;;;10.77;5.75;;;;;;;30.01;38.87;94819.31;5112050;28;20188;-44
2023/09/14 09:30:55;;;;;;;10.88;5.15;;;;;;;29.88;39.34;94820.56;5112013;28;20193;-44
2023/09/14 09:33:34;;;;;;;22.77;6.20;;;;;;;29.84;39.65;94819.50;5111689;28;20635;-44
2023/09/14 09:36:01;;;;;;;17.85;5.90;;;;;;;29.83;39.60;94820.50;5111596;28;20227;-45
2023/09/14 09:38:29;;;;;;;15.90;4.93;;;;;;;29.91;39.36;94816.59;5111962;28;20188;-46
2023/09/14 09:40:58;;;;;;;15.88;4.82;;;;;;;29.92;38.73;94826.09;5111384;28;20376;-46
2023/09/14 09:43:25;;;;;;;14.20;5.13;;;;;;;29.91;38.89;94814.75;5111238;27;20188;-44
2023/09/14 09:45:54;;;;;;;7.63;4.63;;;;;;;29.97;39.22;94816.41;5111769;28;20189;-43
2023/09/14 09:48:21;;;;;;;9.98;5.22;;;;;;;30.08;38.78;94811.94;5111689;28;20185;-46
2023/09/14 09:50:48;;;;;;;10.55;4.70;;;;;;;30.19;38.98;94816.25;5111611;28;20720;-47
2023/09/14 09:53:15;;;;;;;18.08;5.63;;;;;;;30.27;38.66;94819.44;5111706;28;20724;-45
2023/09/14 09:55:44;;;;;;;13.40;4.72;;;;;;;30.36;38.57;94810.00;5111292;28;20284;-44
2023/09/14 09:58:16;;;;;;;13.57;4.88;;;;;;;30.42;38.04;94816.88;5111453;28;20196;-45
2023/09/14 10:00:44;;;;;;;14.07;5.10;;;;;;;30.49;38.31;94806.88;5111260;28;20226;-44
2023/09/14 10:03:19;;;;;;;15.07;5.22;;;;;;;30.59;38.42;94806.91;5111135;28;20215;-47
2023/09/14 10:05:48;;;;;;;16.83;5.80;;;;;;;30.58;38.03;94804.53;5111134;28;20225;-45
2023/09/14 10:08:18;;;;;;;15.57;5.45;;;;;;;30.54;37.95;94801.59;5099976;28;20216;-45
2023/09/14 10:10:50;;;;;;;15.13;4.68;;;;;;;30.48;37.57;94797.34;5088285;28;20193;-45
2023/09/14 10:13:23;;;;;;;16.38;4.70;;;;;;;30.52;37.71;94798.41;5088258;28;20781;-44
2023/09/14 10:15:53;;;;;;;13.30;4.53;;;;;;;30.47;37.32;94801.03;5088157;28;20185;-44
2023/09/14 10:18:21;;;;;;;14.85;4.55;;;;;;;30.42;36.86;94793.13;5088428;28;20199;-45
2023/09/14 10:20:51;;;;;;;13.98;4.85;;;;;;;30.34;36.36;94790.97;5087683;28;20243;-43
2023/09/14 10:23:20;;;;;;;9.60;4.13;;;;;;;30.21;36.06;94786.97;5087867;28;20276;-45
2023/09/14 10:25:49;;;;;;;8.75;4.60;;;;;;;30.18;36.27;94777.75;5087736;28;20233;-43
2023/09/14 10:28:17;;;;;;;10.15;4.38;;;;;;;30.28;36.90;94778.84;5087982;28;20193;-45
2023/09/14 10:30:47;;;;;;;10.73;4.70;;;;;;;30.38;36.85;94776.22;5088096;28;20196;-45
2023/09/14 10:33:15;;;;;;;14.27;5.35;;;;;;;30.59;36.38;94779.69;5087680;28;20228;-46
2023/09/14 10:35:43;;;;;;;12.85;4.00;;;;;;;30.64;36.01;94772.56;5088080;28;20191;-46
2023/09/14 10:38:11;;;;;;;13.73;4.65;;;;;;;30.68;35.94;94767.56;5087763;28;20197;-44
2023/09/14 10:40:38;;;;;;;9.90;4.68;;;;;;;30.73;35.65;94773.69;5088001;28;20221;-44
2023/09/14 10:43:05;;;;;;;7.55;4.55;;;;;;;30.80;34.99;94762.88;5087850;28;20236;-44
2023/09/14 10:45:36;;;;;;;16.15;4.30;;;;;;;30.75;35.67;94768.16;5088249;28;20189;-45
2023/09/14 10:48:07;;;;;;;9.57;4.57;;;;;;;30.73;35.09;94763.13;5087164;28;20666;-45
2023/09/14 10:50:35;;;;;;;11.30;4.93;;;;;;;30.82;34.67;94754.66;5087627;28;20194;-44
2023/09/14 10:53:02;;;;;;;7.18;4.00;;;;;;;30.95;34.63;94760.22;5087111;28;20177;-44
2023/09/14 10:55:31;;;;;;;16.25;4.85;;;;;;;31.09;34.78;94757.06;5086549;28;20650;-45
2023/09/14 10:57:58;;;;;;;8.32;4.75;;;;;;;31.16;34.73;94745.16;5087643;28;20181;-45
2023/09/14 11:00:33;;;;;;;7.25;4.50;;;;;;;31.20;34.68;94750.72;5087348;28;20665;-44
2023/09/14 11:03:00;;;;;;;9.52;5.60;;;;;;;31.28;34.89;94744.94;5087513;28;20277;-46
2023/09/14 11:05:40;;;;;;;11.27;5.20;;;;;;;31.38;34.53;94739.63;5087707;28;20190;-44
2023/09/14 11:08:08;;;;;;;9.68;5.25;;;;;;;31.45;34.30;94737.50;5087165;28;20185;-45
2023/09/14 11:10:37;;;;;;;8.00;4.63;;;;;;;31.47;34.26;94740.66;5087616;28;20831;-44
2023/09/14 11:13:26;;;;;;;12.75;4.90;;;;;;;31.44;34.50;94745.72;5087304;28;20185;-44
2023/09/14 11:16:04;;;;;;;9.20;4.30;;;;;;;31.46;34.41;94739.09;5087292;28;20201;-44
2023/09/14 11:18:36;;;;;;;10.10;4.32;;;;;;;31.50;34.25;94731.41;5087210;28;20341;-44
2023/09/14 11:21:05;;;;;;;11.90;4.60;;;;;;;31.54;34.08;94729.03;5086651;28;20190;-43
2023/09/14 11:23:35;;;;;;;6.63;4.13;;;;;;;31.66;33.96;94725.03;5087392;28;20304;-45
2023/09/14 11:26:03;;;;;;;6.82;4.50;;;;;;;31.62;33.93;94731.13;5096337;27;20715;-44
2023/09/14 11:28:31;;;;;;;6.78;4.20;;;;;;;31.65;33.75;94726.09;5109923;28;20296;-45
2023/09/14 11:30:58;;;;;;;9.82;4.60;;;;;;;31.60;33.77;94731.38;5110132;28;20272;-45
2023/09/14 11:33:25;;;;;;;16.58;4.68;;;;;;;31.65;34.29;94725.28;5109745;28;20280;-44